createdAt,value
2018-10-12T00:01:43.633Z,101447.72
2018-10-12T00:04:11.979Z,101452.52
2018-10-12T00:06:40.445Z,101456.20
2018-10-12T00:09:10.172Z,101445.38
2018-10-12T00:11:38.868Z,101440.44
2018-10-12T00:14:07.269Z,101446.30
2018-10-12T00:16:35.597Z,101446.02
2018-10-12T00:19:03.945Z,101445.53
2018-10-12T00:21:32.372Z,101447.42
2018-10-12T00:24:00.701Z,101445.30
2018-10-12T00:26:29.086Z,101439.98
2018-10-12T00:28:57.461Z,101442.20
2018-10-12T00:31:25.842Z,101446.52
2018-10-12T00:33:54.192Z,101448.74
2018-10-12T00:36:22.561Z,101452.56
2018-10-12T00:38:51.498Z,101455.76
2018-10-12T00:41:19.833Z,101458.87
2018-10-12T00:43:48.184Z,101461.16
2018-10-12T00:46:16.613Z,101459.41
2018-10-12T00:48:44.954Z,101456.41
2018-10-12T00:51:13.285Z,101452.41
2018-10-12T00:53:41.615Z,101454.80
2018-10-12T00:56:10.141Z,101457.74
2018-10-12T00:58:38.521Z,101452.97
2018-10-12T01:01:06.906Z,101456.41
2018-10-12T01:03:35.243Z,101462.30
2018-10-12T01:06:03.574Z,101462.05
2018-10-12T01:08:31.901Z,101461.81
2018-10-12T01:11:00.286Z,101465.63
2018-10-12T01:13:28.641Z,101462.93
2018-10-12T01:15:56.972Z,101468.19
2018-10-12T01:18:25.331Z,101468.36
2018-10-12T01:20:53.717Z,101465.27
2018-10-12T01:23:22.058Z,101461.79
2018-10-12T01:25:50.395Z,101469.56
2018-10-12T01:28:18.739Z,101467.87
2018-10-12T01:30:47.118Z,101473.05
2018-10-12T01:33:15.464Z,101474.97
2018-10-12T01:35:43.805Z,101461.12
2018-10-12T01:38:12.153Z,101478.14
2018-10-12T01:40:40.502Z,101473.02
2018-10-12T01:43:08.836Z,101475.48
2018-10-12T01:45:37.185Z,101474.52
2018-10-12T01:48:05.594Z,101480.63
2018-10-12T01:50:33.965Z,101485.31
2018-10-12T01:53:02.298Z,101489.98
2018-10-12T01:55:30.664Z,101492.88
2018-10-12T01:57:59.054Z,101500.79
2018-10-12T02:00:27.527Z,101493.25
2018-10-12T02:02:55.869Z,101494.75
2018-10-12T02:05:24.223Z,101491.40
2018-10-12T02:07:52.585Z,101495.59
2018-10-12T02:10:20.935Z,101487.97
2018-10-12T02:12:49.256Z,101496.20
2018-10-12T02:15:17.615Z,101492.30
2018-10-12T02:17:45.937Z,101496.05
2018-10-12T02:20:14.351Z,101495.17
2018-10-12T02:22:43.060Z,101499.36
2018-10-12T02:25:12.056Z,101498.75
2018-10-12T02:27:40.404Z,101498.48
2018-10-12T02:30:09.326Z,101500.25
2018-10-12T02:32:37.910Z,101498.37
2018-10-12T02:35:06.497Z,101496.15
2018-10-12T02:37:34.922Z,101499.86
2018-10-12T02:40:03.332Z,101501.34
2018-10-12T02:42:31.668Z,101503.88
2018-10-12T02:44:59.989Z,101509.36
2018-10-12T02:47:28.321Z,101510.02
2018-10-12T02:49:56.657Z,101497.22
2018-10-12T02:52:24.986Z,101507.14
2018-10-12T02:54:53.353Z,101515.63
2018-10-12T02:57:21.675Z,101513.97
2018-10-12T02:59:50.041Z,101518.89
2018-10-12T03:02:18.361Z,101512.54
2018-10-12T03:04:46.716Z,101514.89
2018-10-12T03:07:15.056Z,101515.84
2018-10-12T03:09:43.405Z,101519.20
2018-10-12T03:12:11.847Z,101524.34
2018-10-12T03:14:40.180Z,101522.98
2018-10-12T03:17:08.547Z,101520.85
2018-10-12T03:19:37.112Z,101519.42
2018-10-12T03:22:05.473Z,101511.94
2018-10-12T03:24:33.883Z,101515.24
2018-10-12T03:27:02.267Z,101511.54
2018-10-12T03:29:30.611Z,101519.55
2018-10-12T03:31:58.948Z,101525.69
2018-10-12T03:34:27.308Z,101527.98
2018-10-12T03:36:55.670Z,101524.89
2018-10-12T03:39:24.017Z,101522.80
2018-10-12T03:41:52.352Z,101517.45
2018-10-12T03:44:20.710Z,101525.02
2018-10-12T03:46:49.061Z,101531.02
2018-10-12T03:49:17.399Z,101534.59
2018-10-12T03:51:45.770Z,101542.29
2018-10-12T03:54:14.165Z,101537.16
2018-10-12T03:56:42.499Z,101541.15
2018-10-12T03:59:10.981Z,101548.69
2018-10-12T04:01:39.328Z,101545.24
2018-10-12T04:04:07.673Z,101545.72
2018-10-12T04:06:36.021Z,101545.87
2018-10-12T04:09:05.490Z,101546.59
2018-10-12T04:11:33.829Z,101545.80
2018-10-12T04:14:02.146Z,101547.23
2018-10-12T04:16:30.651Z,101547.95
2018-10-12T04:18:58.980Z,101549.30
2018-10-12T04:21:27.352Z,101543.52
2018-10-12T04:23:55.671Z,101556.13
2018-10-12T04:26:24.009Z,101557.00
2018-10-12T04:28:52.349Z,101554.67
2018-10-12T04:31:20.684Z,101555.11
2018-10-12T04:33:49.051Z,101561.97
2018-10-12T04:36:17.471Z,101569.78
2018-10-12T04:38:57.101Z,101585.20
2018-10-12T04:41:25.465Z,101582.86
2018-10-12T04:43:55.225Z,101587.98
2018-10-12T04:46:28.733Z,101589.60
2018-10-12T04:48:57.144Z,101590.41
2018-10-12T04:51:47.189Z,101593.49
2018-10-12T04:54:15.778Z,101587.83
2018-10-12T04:56:44.556Z,101587.98
2018-10-12T04:59:12.909Z,101589.69
2018-10-12T05:01:41.257Z,101591.94
2018-10-12T05:04:09.637Z,101590.59
2018-10-12T05:06:38.003Z,101596.53
2018-10-12T05:09:08.086Z,101592.72
2018-10-12T05:11:36.482Z,101598.59
2018-10-12T05:14:04.822Z,101597.43
2018-10-12T05:16:33.168Z,101607.41
2018-10-12T05:19:01.520Z,101610.50
2018-10-12T05:21:29.901Z,101612.08
2018-10-12T05:23:58.251Z,101613.50
2018-10-12T05:26:26.616Z,101618.38
2018-10-12T05:28:55.005Z,101621.51
2018-10-12T05:31:23.347Z,101619.15
2018-10-12T05:33:51.689Z,101628.58
2018-10-12T05:36:20.033Z,101628.03
2018-10-12T05:38:48.380Z,101624.65
2018-10-12T05:41:17.602Z,101626.98
2018-10-12T05:43:46.031Z,101632.25
2018-10-12T05:46:14.305Z,101635.94
2018-10-12T05:48:54.117Z,101644.27
2018-10-12T05:51:22.457Z,101643.51
2018-10-12T05:53:52.341Z,101645.80
2018-10-12T05:56:22.870Z,101646.20
2018-10-12T05:58:51.553Z,101656.03
2018-10-12T06:01:20.084Z,101659.48
2018-10-12T06:03:48.404Z,101653.22
2018-10-12T06:06:16.758Z,101656.25
2018-10-12T06:08:45.144Z,101661.92
2018-10-12T06:11:13.532Z,101662.84
2018-10-12T06:13:41.884Z,101666.33
2018-10-12T06:16:10.484Z,101664.58
2018-10-12T06:18:38.861Z,101666.33
2018-10-12T06:21:07.722Z,101673.06
2018-10-12T06:23:36.172Z,101676.99
2018-10-12T06:26:04.532Z,101677.76
2018-10-12T06:28:32.876Z,101679.03
2018-10-12T06:31:01.239Z,101675.35
2018-10-12T06:33:29.578Z,101677.86
2018-10-12T06:38:25.816Z,101682.85
2018-10-12T06:40:54.192Z,101679.09
2018-10-12T06:43:22.552Z,101678.84
2018-10-12T06:45:50.902Z,101684.80
2018-10-12T06:48:19.251Z,101693.33
2018-10-12T06:50:47.588Z,101694.13
2018-10-12T06:53:15.896Z,101696.59
2018-10-12T06:55:44.245Z,101696.52
2018-10-12T06:58:12.592Z,101684.20
2018-10-12T07:00:40.941Z,101688.88
2018-10-12T07:03:09.310Z,101695.44
2018-10-12T07:05:37.739Z,101702.73
2018-10-12T07:08:06.054Z,101708.81
2018-10-12T07:10:34.418Z,101713.82
2018-10-12T07:13:02.765Z,101720.73
2018-10-12T07:15:31.105Z,101724.86
2018-10-12T07:17:59.454Z,101722.71
2018-10-12T07:20:27.784Z,101723.25
2018-10-12T07:22:56.281Z,101728.13
2018-10-12T07:25:24.615Z,101737.84
2018-10-12T07:27:52.969Z,101734.62
2018-10-12T07:30:21.303Z,101732.72
2018-10-12T07:32:49.650Z,101732.59
2018-10-12T07:35:18.136Z,101720.44
2018-10-12T07:37:46.519Z,101727.88
2018-10-12T07:40:15.373Z,101714.52
2018-10-12T07:42:43.850Z,101725.50
2018-10-12T07:45:12.200Z,101735.67
2018-10-12T07:47:40.592Z,101737.20
2018-10-12T07:50:08.964Z,101736.11
2018-10-12T07:52:37.357Z,101737.55
2018-10-12T07:55:05.688Z,101735.02
2018-10-12T07:57:34.030Z,101746.23
2018-10-12T08:00:02.400Z,101754.45
2018-10-12T08:02:30.754Z,101755.44
2018-10-12T08:04:59.138Z,101754.62
2018-10-12T08:07:27.477Z,101746.90
2018-10-12T08:09:56.249Z,101737.36
2018-10-12T08:12:24.582Z,101736.64
2018-10-12T08:14:52.933Z,101742.27
2018-10-12T08:17:21.288Z,101751.50
2018-10-12T08:19:49.661Z,101769.41
2018-10-12T08:22:18.007Z,101769.94
2018-10-12T08:24:46.365Z,101773.84
2018-10-12T08:27:14.824Z,101785.96
2018-10-12T08:29:43.210Z,101782.61
2018-10-12T08:32:11.878Z,101779.84
2018-10-12T08:34:40.228Z,101774.94
2018-10-12T08:37:08.607Z,101778.36
2018-10-12T08:39:36.935Z,101780.80
2018-10-12T08:42:05.349Z,101783.23
2018-10-12T08:44:33.693Z,101791.77
2018-10-12T08:47:02.126Z,101791.50
2018-10-12T08:49:30.474Z,101796.80
2018-10-12T08:51:59.647Z,101781.91
2018-10-12T08:54:28.003Z,101772.37
2018-10-12T08:56:56.357Z,101784.75
2018-10-12T08:59:24.713Z,101792.52
2018-10-12T09:01:53.115Z,101793.72
2018-10-12T09:04:21.448Z,101792.32
2018-10-12T09:06:49.841Z,101803.04
2018-10-12T09:09:18.198Z,101808.42
2018-10-12T09:11:46.554Z,101818.01
2018-10-12T09:14:14.976Z,101815.85
2018-10-12T09:16:43.328Z,101807.00
2018-10-12T09:19:11.668Z,101799.73
2018-10-12T09:21:40.167Z,101807.59
2018-10-12T09:24:08.482Z,101806.10
2018-10-12T09:26:36.837Z,101807.36
2018-10-12T09:29:05.244Z,101802.11
2018-10-12T09:31:33.710Z,101814.43
2018-10-12T09:34:02.075Z,101818.41
2018-10-12T09:36:30.534Z,101810.45
2018-10-12T09:38:58.908Z,101803.85
2018-10-12T09:41:27.240Z,101808.69
2018-10-12T09:43:55.662Z,101812.04
2018-10-12T09:46:23.998Z,101804.20
2018-10-12T09:48:52.327Z,101820.18
2018-10-12T09:51:20.736Z,101822.70
2018-10-12T09:53:49.101Z,101819.45
2018-10-12T09:56:17.783Z,101824.58
2018-10-12T09:58:46.713Z,101820.94
2018-10-12T10:01:21.595Z,101823.97
2018-10-12T10:03:55.270Z,101835.49
2018-10-12T10:06:23.888Z,101828.98
2018-10-12T10:08:52.268Z,101826.25
2018-10-12T10:11:20.587Z,101820.39
2018-10-12T10:13:49.061Z,101827.27
2018-10-12T10:16:17.338Z,101811.11
2018-10-12T10:18:45.688Z,101808.39
2018-10-12T10:21:14.014Z,101806.41
2018-10-12T10:23:42.356Z,101807.08
2018-10-12T10:26:10.704Z,101796.14
2018-10-12T10:28:39.048Z,101801.19
2018-10-12T10:31:07.401Z,101798.55
2018-10-12T10:33:35.749Z,101796.70
2018-10-12T10:36:04.097Z,101787.88
2018-10-12T10:38:32.571Z,101783.74
2018-10-12T10:41:00.950Z,101789.78
2018-10-12T10:43:29.323Z,101781.70
2018-10-12T10:45:57.646Z,101786.95
2018-10-12T10:48:26.060Z,101793.27
2018-10-12T10:50:54.409Z,101800.40
2018-10-12T10:53:22.798Z,101820.56
2018-10-12T10:55:51.138Z,101810.09
2018-10-12T10:58:19.459Z,101807.98
2018-10-12T11:00:47.850Z,101797.50
2018-10-12T11:03:16.204Z,101790.30
2018-10-12T11:05:44.579Z,101792.52
2018-10-12T11:08:12.964Z,101790.78
2018-10-12T11:10:41.302Z,101798.38
2018-10-12T11:13:09.639Z,101800.48
2018-10-12T11:15:37.985Z,101799.21
2018-10-12T11:18:06.538Z,101794.48
2018-10-12T11:20:35.375Z,101792.00
2018-10-12T11:23:03.771Z,101793.11
2018-10-12T11:25:32.137Z,101798.32
2018-10-12T11:28:00.510Z,101803.77
2018-10-12T11:30:28.872Z,101805.91
2018-10-12T11:32:57.369Z,101804.50
2018-10-12T11:35:25.659Z,101803.27
2018-10-12T11:37:53.995Z,101795.45
2018-10-12T11:40:22.391Z,101792.58
2018-10-12T11:43:01.981Z,101795.45
2018-10-12T11:45:30.428Z,101802.27
2018-10-12T11:47:58.756Z,101797.92
2018-10-12T11:50:27.135Z,101801.90
2018-10-12T11:52:55.595Z,101805.00
2018-10-12T11:55:24.001Z,101806.14
2018-10-12T11:57:52.307Z,101811.11
2018-10-12T12:00:20.641Z,101807.88
2018-10-12T12:02:49.194Z,101806.73
2018-10-12T12:05:17.512Z,101807.00
2018-10-12T12:07:45.865Z,101807.73
2018-10-12T12:10:14.203Z,101813.61
2018-10-12T12:12:42.550Z,101813.22
2018-10-12T12:15:10.909Z,101809.03
2018-10-12T12:17:39.300Z,101811.01
2018-10-12T12:20:07.648Z,101813.37
2018-10-12T12:22:36.099Z,101813.37
2018-10-12T12:25:04.511Z,101807.67
2018-10-12T12:27:32.865Z,101808.53
2018-10-12T12:30:01.204Z,101805.90
2018-10-12T12:32:29.554Z,101812.27
2018-10-12T12:34:58.009Z,101808.77
2018-10-12T12:37:26.277Z,101805.93
2018-10-12T12:39:54.597Z,101804.55
2018-10-12T12:42:22.953Z,101803.32
2018-10-12T12:44:51.308Z,101799.08
2018-10-12T12:47:19.668Z,101797.84
2018-10-12T12:49:48.037Z,101794.53
2018-10-12T12:52:16.363Z,101793.87
2018-10-12T12:54:44.712Z,101790.65
2018-10-12T12:57:13.088Z,101788.55
2018-10-12T12:59:41.441Z,101784.68
2018-10-12T13:02:09.861Z,101782.56
2018-10-12T13:04:38.194Z,101787.53
2018-10-12T13:07:06.548Z,101791.41
2018-10-12T13:09:34.896Z,101785.94
2018-10-12T13:12:03.249Z,101789.66
2018-10-12T13:14:31.586Z,101795.28
2018-10-12T13:16:59.926Z,101798.39
2018-10-12T13:19:28.277Z,101802.38
2018-10-12T13:21:56.931Z,101808.84
2018-10-12T13:24:25.276Z,101810.72
2018-10-12T13:26:53.607Z,101811.70
2018-10-12T13:29:21.954Z,101807.86
2018-10-12T13:31:50.369Z,101806.00
2018-10-12T13:34:18.810Z,101815.45
2018-10-12T13:36:47.142Z,101814.83
2018-10-12T13:39:15.513Z,101820.69
2018-10-12T13:41:43.841Z,101818.31
2018-10-12T13:44:12.169Z,101821.80
2018-10-12T13:46:40.590Z,101819.17
2018-10-12T13:49:09.099Z,101822.93
2018-10-12T13:51:37.461Z,101822.19
2018-10-12T13:54:06.033Z,101818.92
2018-10-12T13:56:34.403Z,101819.56
2018-10-12T13:59:02.734Z,101819.05
2018-10-12T14:01:31.523Z,101820.66
2018-10-12T14:03:59.852Z,101828.17
2018-10-12T14:06:28.225Z,101828.88
2018-10-12T14:08:56.538Z,101828.03
2018-10-12T14:11:24.887Z,101836.26
2018-10-12T14:13:53.211Z,101832.02
2018-10-12T14:16:21.546Z,101822.80
2018-10-12T14:18:49.935Z,101822.78
2018-10-12T14:21:18.249Z,101824.16
2018-10-12T14:23:46.580Z,101816.69
2018-10-12T14:26:14.924Z,101810.84
2018-10-12T14:28:43.265Z,101817.19
2018-10-12T14:31:11.613Z,101817.67
2018-10-12T14:33:39.979Z,101814.09
2018-10-12T14:36:08.337Z,101816.06
2018-10-12T14:38:37.263Z,101819.05
2018-10-12T14:41:05.590Z,101821.79
2018-10-12T14:43:34.036Z,101819.92
2018-10-12T14:46:02.381Z,101811.20
2018-10-12T14:48:30.714Z,101816.31
2018-10-12T14:50:59.059Z,101807.72
2018-10-12T14:53:27.431Z,101799.63
2018-10-12T14:55:55.756Z,101806.84
2018-10-12T14:58:24.104Z,101800.39
2018-10-12T15:00:52.529Z,101796.52
2018-10-12T15:03:20.862Z,101795.75
2018-10-12T15:05:49.230Z,101794.27
2018-10-12T15:08:17.626Z,101795.39
2018-10-12T15:10:45.954Z,101793.41
2018-10-12T15:13:14.332Z,101797.27
2018-10-12T15:15:42.670Z,101800.14
2018-10-12T15:18:11.065Z,101794.41
2018-10-12T15:20:39.406Z,101797.77
2018-10-12T15:23:07.745Z,101798.14
2018-10-12T15:25:36.088Z,101803.13
2018-10-12T15:28:04.455Z,101805.23
2018-10-12T15:30:32.769Z,101806.35
2018-10-12T15:33:01.154Z,101806.35
2018-10-12T15:35:29.497Z,101806.59
2018-10-12T15:37:57.853Z,101807.03
2018-10-12T15:40:26.345Z,101816.12
2018-10-12T15:42:54.774Z,101819.69
2018-10-12T15:45:23.057Z,101823.66
2018-10-12T15:47:51.440Z,101825.89
2018-10-12T15:50:29.583Z,101826.12
2018-10-12T15:52:57.975Z,101831.81
2018-10-12T15:55:26.314Z,101827.66
2018-10-12T15:57:54.659Z,101825.16
2018-10-12T16:00:23.083Z,101828.94
2018-10-12T16:02:52.131Z,101832.12
2018-10-12T16:05:20.524Z,101828.62
2018-10-12T16:07:48.911Z,101831.14
2018-10-12T16:10:17.324Z,101825.63
2018-10-12T16:12:45.695Z,101824.44
2018-10-12T16:15:14.044Z,101837.52
2018-10-12T16:17:42.403Z,101838.07
2018-10-12T16:20:10.765Z,101849.06
2018-10-12T16:22:39.133Z,101854.42
2018-10-12T16:25:18.853Z,101857.42
2018-10-12T16:27:47.405Z,101855.73
2018-10-12T16:30:15.791Z,101860.74
2018-10-12T16:32:44.128Z,101864.63
2018-10-12T16:35:12.479Z,101869.34
2018-10-12T16:37:40.831Z,101869.38
2018-10-12T16:40:09.222Z,101870.78
2018-10-12T16:42:38.161Z,101868.70
2018-10-12T16:45:06.541Z,101871.58
2018-10-12T16:47:34.944Z,101871.66
2018-10-12T16:50:03.340Z,101876.02
2018-10-12T16:52:31.711Z,101875.47
2018-10-12T16:55:00.056Z,101881.12
2018-10-12T16:57:35.253Z,101882.62
2018-10-12T17:00:03.993Z,101893.25
2018-10-12T17:02:32.372Z,101886.45
2018-10-12T17:05:00.712Z,101890.77
2018-10-12T17:07:29.088Z,101899.94
2018-10-12T17:09:57.448Z,101895.48
2018-10-12T17:12:25.801Z,101899.19
2018-10-12T17:14:54.172Z,101908.31
2018-10-12T17:17:22.541Z,101911.05
2018-10-12T17:19:50.912Z,101916.38
2018-10-12T17:22:19.287Z,101914.73
2018-10-12T17:24:47.652Z,101924.27
2018-10-12T17:27:16.015Z,101922.32
2018-10-12T17:29:44.382Z,101931.77
2018-10-12T17:32:12.729Z,101930.28
2018-10-12T17:34:41.086Z,101932.13
2018-10-12T17:37:09.493Z,101932.11
2018-10-12T17:39:37.842Z,101937.03
2018-10-12T17:42:13.324Z,101938.04
2018-10-12T17:44:41.794Z,101933.45
2018-10-12T17:47:10.222Z,101935.86
2018-10-12T17:49:38.627Z,101938.31
2018-10-12T17:52:07.246Z,101940.23
2018-10-12T17:54:35.611Z,101942.56
2018-10-12T17:57:05.543Z,101938.45
2018-10-12T17:59:34.126Z,101948.42
2018-10-12T18:02:03.020Z,101947.45
2018-10-12T18:04:32.628Z,101950.78
2018-10-12T18:07:01.006Z,101949.11
2018-10-12T18:09:29.386Z,101948.61
2018-10-12T18:11:57.760Z,101949.31
2018-10-12T18:14:26.248Z,101952.09
2018-10-12T18:16:54.513Z,101953.89
2018-10-12T18:19:22.889Z,101949.22
2018-10-12T18:21:51.289Z,101943.46
2018-10-12T18:24:19.652Z,101943.39
2018-10-12T18:26:48.004Z,101939.48
2018-10-12T18:29:16.511Z,101948.52
2018-10-12T18:31:44.936Z,101940.89
2018-10-12T18:34:13.290Z,101941.66
2018-10-12T18:36:41.653Z,101944.38
2018-10-12T18:39:11.139Z,101940.34
2018-10-12T18:41:39.513Z,101943.77
2018-10-12T18:44:07.879Z,101950.77
2018-10-12T18:46:36.603Z,101950.05
2018-10-12T18:49:05.193Z,101950.72
2018-10-12T18:51:33.568Z,101955.22
2018-10-12T18:54:01.972Z,101964.05
2018-10-12T18:56:30.396Z,101963.36
2018-10-12T18:58:58.777Z,101956.73
2018-10-12T19:01:27.195Z,101966.23
2018-10-12T19:03:55.900Z,101962.32
2018-10-12T19:06:24.280Z,101968.06
2018-10-12T19:08:52.672Z,101966.96
2018-10-12T19:11:21.038Z,101971.20
2018-10-12T19:13:49.446Z,101975.05
2018-10-12T19:16:17.768Z,101976.01
2018-10-12T19:18:46.160Z,101977.52
2018-10-12T19:21:14.595Z,101978.40
2018-10-12T19:23:42.967Z,101981.45
2018-10-12T19:26:11.357Z,101977.23
2018-10-12T19:28:39.745Z,101981.72
2018-10-12T19:31:08.890Z,101985.16
2018-10-12T19:33:38.121Z,101985.25
2018-10-12T19:36:06.586Z,101982.30
2018-10-12T19:38:34.980Z,101986.42
2018-10-12T19:41:03.375Z,101987.05
2018-10-12T19:43:31.723Z,101987.23
2018-10-12T19:46:00.077Z,101994.31
2018-10-12T19:48:28.436Z,101991.59
2018-10-12T19:50:56.791Z,101994.46
2018-10-12T19:53:25.136Z,101991.26
2018-10-12T19:55:53.492Z,101995.75
2018-10-12T19:58:21.857Z,101986.63
2018-10-12T20:03:49.012Z,101985.27
2018-10-12T20:06:17.353Z,101983.25
2018-10-12T20:08:45.686Z,101987.73
2018-10-12T20:11:14.008Z,101980.14
2018-10-12T20:13:42.325Z,101982.37
2018-10-12T20:16:10.665Z,101975.45
2018-10-12T20:18:38.972Z,101974.62
2018-10-12T20:21:07.373Z,101971.03
2018-10-12T20:23:35.798Z,101971.42
2018-10-12T20:26:04.121Z,101972.53
2018-10-12T20:28:32.457Z,101975.19
2018-10-12T20:31:00.815Z,101979.11
2018-10-12T20:33:29.173Z,101973.02
2018-10-12T20:35:57.505Z,101970.30
2018-10-12T20:38:25.824Z,101973.88
2018-10-12T20:40:54.172Z,101979.25
2018-10-12T20:43:22.492Z,101980.27
2018-10-12T20:45:50.822Z,101978.04
2018-10-12T20:48:19.171Z,101976.30
2018-10-12T20:50:47.546Z,101976.66
2018-10-12T20:53:15.871Z,101977.43
2018-10-12T20:55:44.229Z,101979.83
2018-10-12T20:58:16.711Z,101986.37
2018-10-12T21:00:45.805Z,101979.17
2018-10-12T21:03:14.187Z,101981.97
2018-10-12T21:05:42.766Z,101978.64
2018-10-12T21:08:11.169Z,101977.68
2018-10-12T21:10:39.632Z,101973.75
2018-10-12T21:13:07.963Z,101979.09
2018-10-12T21:15:36.296Z,101982.20
2018-10-12T21:18:04.822Z,101982.34
2018-10-12T21:20:33.134Z,101981.44
2018-10-12T21:23:01.485Z,101985.64
2018-10-12T21:25:29.856Z,101977.38
2018-10-12T21:27:58.206Z,101976.55
2018-10-12T21:30:26.552Z,101980.30
2018-10-12T21:32:54.899Z,101980.78
2018-10-12T21:35:23.237Z,101975.22
2018-10-12T21:37:51.577Z,101974.34
2018-10-12T21:40:19.978Z,101982.52
2018-10-12T21:42:48.342Z,101975.57
2018-10-12T21:45:16.663Z,101979.07
2018-10-12T21:47:45.098Z,101977.88
2018-10-12T21:50:13.445Z,101979.59
2018-10-12T21:52:41.792Z,101980.38
2018-10-12T21:55:10.128Z,101985.36
2018-10-12T21:57:38.451Z,101981.70
2018-10-12T22:00:06.966Z,101988.94
2018-10-12T22:02:35.193Z,101987.89
2018-10-12T22:05:03.555Z,101984.65
2018-10-12T22:07:31.896Z,101987.54
2018-10-12T22:10:00.251Z,101990.52
2018-10-12T22:12:28.617Z,101989.84
2018-10-12T22:14:56.977Z,101997.35
2018-10-12T22:17:25.307Z,101994.04
2018-10-12T22:19:53.661Z,101995.47
2018-10-12T22:22:22.013Z,101991.41
2018-10-12T22:24:50.716Z,101992.23
2018-10-12T22:27:19.063Z,101987.64
2018-10-12T22:29:47.368Z,101986.97
2018-10-12T22:32:15.720Z,101992.03
2018-10-12T22:34:44.055Z,101990.67
2018-10-12T22:37:12.377Z,101992.23
2018-10-12T22:39:43.549Z,101993.86
2018-10-12T22:42:13.250Z,101991.41
2018-10-12T22:44:41.576Z,101988.50
2018-10-12T22:47:10.537Z,101995.15
2018-10-12T22:49:39.213Z,101991.69
2018-10-12T22:52:07.774Z,101994.40
2018-10-12T22:54:36.116Z,101999.41
2018-10-12T22:57:04.482Z,102001.68
2018-10-12T22:59:32.808Z,102002.55
2018-10-12T23:02:01.209Z,102002.63
2018-10-12T23:04:29.564Z,102006.70
2018-10-12T23:06:57.891Z,102007.41
2018-10-12T23:09:26.224Z,102006.54
2018-10-12T23:11:54.535Z,102007.09
2018-10-12T23:14:22.876Z,102007.22
2018-10-12T23:16:51.189Z,102007.57
2018-10-12T23:19:19.538Z,102009.40
2018-10-12T23:21:47.870Z,102006.74
2018-10-12T23:24:16.203Z,102011.27
2018-10-12T23:26:44.532Z,102009.72
2018-10-12T23:29:12.866Z,102006.02
2018-10-12T23:31:41.189Z,102003.72
2018-10-12T23:34:10.037Z,102001.41
2018-10-12T23:36:38.389Z,102005.54
2018-10-12T23:39:08.510Z,102003.31
2018-10-12T23:41:36.857Z,102002.16
2018-10-12T23:44:05.459Z,102001.69
2018-10-12T23:46:33.778Z,102007.38
2018-10-12T23:49:02.130Z,102009.80
2018-10-12T23:51:30.438Z,102016.77
2018-10-12T23:53:58.773Z,102016.89
2018-10-12T23:56:27.281Z,102012.03
2018-10-12T23:58:55.614Z,102012.39
